createdAt,value
2018-11-07T00:00:51.158Z,66.00
2018-11-07T00:03:21.824Z,65.80
2018-11-07T00:05:52.424Z,66.10
2018-11-07T00:08:23.126Z,65.80
2018-11-07T00:10:56.405Z,65.70
2018-11-07T00:13:26.996Z,66.00
2018-11-07T00:15:57.488Z,66.00
2018-11-07T00:18:28.144Z,65.80
2018-11-07T00:20:58.681Z,65.90
2018-11-07T00:23:29.316Z,66.30
2018-11-07T00:25:59.802Z,66.60
2018-11-07T00:28:30.321Z,67.20
2018-11-07T00:31:00.871Z,67.10
2018-11-07T00:33:31.435Z,67.50
2018-11-07T00:36:01.983Z,67.50
2018-11-07T00:38:32.558Z,67.80
2018-11-07T00:41:03.094Z,67.70
2018-11-07T00:43:33.821Z,67.80
2018-11-07T00:46:04.347Z,67.80
2018-11-07T00:48:34.892Z,68.10
2018-11-07T00:51:05.295Z,67.80
2018-11-07T00:53:35.921Z,68.80
2018-11-07T00:56:06.494Z,69.00
2018-11-07T00:58:37.045Z,68.50
2018-11-07T01:01:07.560Z,68.40
2018-11-07T01:03:38.137Z,68.50
2018-11-07T01:06:08.736Z,68.70
2018-11-07T01:08:39.968Z,69.00
2018-11-07T01:11:10.555Z,69.50
2018-11-07T01:13:41.075Z,69.40
2018-11-07T01:16:11.631Z,69.30
2018-11-07T01:18:42.252Z,69.30
2018-11-07T01:21:12.781Z,69.00
2018-11-07T01:23:43.299Z,69.60
2018-11-07T01:26:14.007Z,69.20
2018-11-07T01:28:44.566Z,69.60
2018-11-07T01:31:15.068Z,69.50
2018-11-07T01:33:45.558Z,68.70
2018-11-07T01:36:16.220Z,69.00
2018-11-07T01:38:46.720Z,69.30
2018-11-07T01:41:17.289Z,69.10
2018-11-07T01:43:47.953Z,68.80
2018-11-07T01:46:19.284Z,69.10
2018-11-07T01:48:49.821Z,69.00
2018-11-07T01:51:20.359Z,69.20
2018-11-07T01:53:50.885Z,68.80
2018-11-07T01:56:21.563Z,69.00
2018-11-07T01:58:52.032Z,69.10
2018-11-07T02:01:22.765Z,68.80
2018-11-07T02:03:53.243Z,68.80
2018-11-07T02:06:23.869Z,69.00
2018-11-07T02:08:54.433Z,69.30
2018-11-07T02:11:25.018Z,69.50
2018-11-07T02:13:55.557Z,69.30
2018-11-07T02:16:26.186Z,69.10
2018-11-07T02:18:56.789Z,69.50
2018-11-07T02:21:27.438Z,69.40
2018-11-07T02:23:57.978Z,69.60
2018-11-07T02:26:28.592Z,69.70
2018-11-07T02:28:59.019Z,70.00
2018-11-07T02:31:29.563Z,70.30
2018-11-07T02:34:00.127Z,70.30
2018-11-07T02:36:30.655Z,70.60
2018-11-07T02:39:01.254Z,70.30
2018-11-07T02:41:31.874Z,70.50
2018-11-07T02:44:02.384Z,70.50
2018-11-07T02:46:33.160Z,70.20
2018-11-07T02:49:03.906Z,70.10
2018-11-07T02:51:34.428Z,70.10
2018-11-07T02:54:04.940Z,70.10
2018-11-07T02:56:35.491Z,70.00
2018-11-07T02:59:06.068Z,70.00
2018-11-07T03:01:45.420Z,69.80
2018-11-07T03:04:17.056Z,69.90
2018-11-07T03:06:47.576Z,70.00
2018-11-07T03:09:18.091Z,70.00
2018-11-07T03:11:48.741Z,69.80
2018-11-07T03:14:19.289Z,69.60
2018-11-07T03:16:49.964Z,69.80
2018-11-07T03:19:20.538Z,69.70
2018-11-07T03:21:51.113Z,69.70
2018-11-07T03:24:21.619Z,69.80
2018-11-07T03:26:52.293Z,69.80
2018-11-07T03:29:22.958Z,70.10
2018-11-07T03:31:53.645Z,70.10
2018-11-07T03:34:24.261Z,70.10
2018-11-07T03:36:54.863Z,70.40
2018-11-07T03:39:25.489Z,70.50
2018-11-07T03:41:55.942Z,70.60
2018-11-07T03:44:26.546Z,70.70
2018-11-07T03:46:57.101Z,70.80
2018-11-07T03:49:27.733Z,71.10
2018-11-07T03:51:58.253Z,71.20
2018-11-07T03:54:28.826Z,71.30
2018-11-07T03:56:59.388Z,71.20
2018-11-07T03:59:29.925Z,71.50
2018-11-07T04:02:00.477Z,71.50
2018-11-07T04:04:31.002Z,71.70
2018-11-07T04:07:01.608Z,71.60
2018-11-07T04:09:32.180Z,72.00
2018-11-07T04:12:02.708Z,72.30
2018-11-07T04:14:33.272Z,72.70
2018-11-07T04:17:03.792Z,73.10
2018-11-07T04:19:34.302Z,72.90
2018-11-07T04:22:04.814Z,73.10
2018-11-07T04:24:35.395Z,73.10
2018-11-07T04:27:05.884Z,73.40
2018-11-07T04:29:36.362Z,73.30
2018-11-07T04:32:06.867Z,73.50
2018-11-07T04:34:37.466Z,73.90
2018-11-07T04:37:08.003Z,74.10
2018-11-07T04:39:38.571Z,73.80
2018-11-07T04:42:09.124Z,73.70
2018-11-07T04:44:39.716Z,73.80
2018-11-07T04:47:10.346Z,73.90
2018-11-07T04:49:40.955Z,74.10
2018-11-07T04:52:11.476Z,74.00
2018-11-07T04:54:42.002Z,74.30
2018-11-07T04:57:12.555Z,74.40
2018-11-07T04:59:43.166Z,74.70
2018-11-07T05:02:13.712Z,74.80
2018-11-07T05:04:44.394Z,75.40
2018-11-07T05:07:14.953Z,75.50
2018-11-07T05:09:45.557Z,76.70
2018-11-07T05:12:16.294Z,76.30
2018-11-07T05:14:46.753Z,77.00
2018-11-07T05:17:17.317Z,77.40
2018-11-07T05:19:48.078Z,77.30
2018-11-07T05:22:18.649Z,77.30
2018-11-07T05:24:49.218Z,77.80
2018-11-07T05:27:19.982Z,77.80
2018-11-07T05:29:50.526Z,78.00
2018-11-07T05:32:21.194Z,78.00
2018-11-07T05:34:51.732Z,78.00
2018-11-07T05:37:22.329Z,78.10
2018-11-07T05:39:52.843Z,78.50
2018-11-07T05:42:23.332Z,78.90
2018-11-07T05:44:53.780Z,79.00
2018-11-07T05:47:24.307Z,79.10
2018-11-07T05:49:54.921Z,79.70
2018-11-07T05:52:25.955Z,80.00
2018-11-07T05:54:56.689Z,79.40
2018-11-07T05:57:27.497Z,79.70
2018-11-07T05:59:57.961Z,80.10
2018-11-07T06:02:29.499Z,80.00
2018-11-07T06:05:00.055Z,80.00
2018-11-07T06:07:30.827Z,79.80
2018-11-07T06:10:01.393Z,80.50
2018-11-07T06:12:31.933Z,80.40
2018-11-07T06:15:03.812Z,80.90
2018-11-07T06:17:34.546Z,81.20
2018-11-07T06:20:05.049Z,81.10
2018-11-07T06:22:42.986Z,81.00
2018-11-07T06:25:56.195Z,80.60
2018-11-07T06:28:33.896Z,80.70
2018-11-07T06:31:14.384Z,80.90
2018-11-07T06:33:55.861Z,81.50
2018-11-07T06:36:30.456Z,80.90
2018-11-07T06:39:10.329Z,80.70
2018-11-07T06:41:41.592Z,80.30
2018-11-07T06:44:22.150Z,79.90
2018-11-07T06:47:00.320Z,79.60
2018-11-07T06:49:37.708Z,79.70
2018-11-07T06:52:12.155Z,79.10
2018-11-07T06:54:48.396Z,79.10
2018-11-07T06:57:22.263Z,78.90
2018-11-07T06:59:55.457Z,78.60
2018-11-07T07:02:27.070Z,78.10
2018-11-07T07:04:57.593Z,78.00
2018-11-07T07:07:28.085Z,77.40
2018-11-07T07:09:58.555Z,77.40
2018-11-07T07:12:29.186Z,77.10
2018-11-07T07:14:59.670Z,77.00
2018-11-07T07:17:30.143Z,76.90
2018-11-07T07:20:00.607Z,76.80
2018-11-07T07:22:31.269Z,76.70
2018-11-07T07:25:01.712Z,76.40
2018-11-07T07:27:32.228Z,76.50
2018-11-07T07:30:02.910Z,76.50
2018-11-07T07:32:33.166Z,76.40
2018-11-07T07:35:04.003Z,76.20
2018-11-07T07:37:34.397Z,76.50
2018-11-07T07:40:05.314Z,76.40
2018-11-07T07:42:35.873Z,75.80
2018-11-07T07:45:07.754Z,76.20
2018-11-07T07:47:38.458Z,75.90
2018-11-07T07:50:10.811Z,75.20
2018-11-07T07:53:18.115Z,76.00
2018-11-07T07:55:48.541Z,75.80
2018-11-07T07:58:19.101Z,75.90
2018-11-07T08:00:49.555Z,74.40
2018-11-07T08:03:20.098Z,74.20
2018-11-07T08:05:50.528Z,73.00
2018-11-07T08:08:21.049Z,72.10
2018-11-07T08:10:51.496Z,73.10
2018-11-07T08:13:21.962Z,73.70
2018-11-07T08:15:52.511Z,72.10
2018-11-07T08:18:22.999Z,71.80
2018-11-07T08:20:53.462Z,71.80
2018-11-07T08:23:23.984Z,70.90
2018-11-07T08:25:54.439Z,71.10
2018-11-07T08:28:25.056Z,71.10
2018-11-07T08:30:55.526Z,69.40
2018-11-07T08:33:25.996Z,68.60
2018-11-07T08:35:56.522Z,65.30
2018-11-07T08:38:26.972Z,53.90
2018-11-07T08:40:57.446Z,47.80
2018-11-07T08:43:27.882Z,46.00
2018-11-07T08:45:58.386Z,47.10
2018-11-07T08:48:28.754Z,49.50
2018-11-07T08:50:59.303Z,45.60
2018-11-07T08:53:29.683Z,43.80
2018-11-07T08:56:00.150Z,44.10
2018-11-07T08:58:30.720Z,41.10
2018-11-07T09:01:01.153Z,40.40
2018-11-07T09:03:31.880Z,39.30
2018-11-07T09:06:02.356Z,39.80
2018-11-07T09:08:32.816Z,41.50
2018-11-07T09:11:03.263Z,41.40
2018-11-07T09:13:33.759Z,40.70
2018-11-07T09:16:04.188Z,40.80
2018-11-07T09:18:34.619Z,40.50
2018-11-07T09:21:05.115Z,41.00
2018-11-07T09:23:35.572Z,40.90
2018-11-07T09:26:06.440Z,40.40
2018-11-07T09:28:36.905Z,40.90
2018-11-07T09:31:07.363Z,40.60
2018-11-07T09:33:37.814Z,41.20
2018-11-07T09:36:08.287Z,39.70
2018-11-07T09:38:38.744Z,40.80
2018-11-07T09:41:09.246Z,40.90
2018-11-07T09:43:39.741Z,41.50
2018-11-07T09:46:10.238Z,41.60
2018-11-07T09:48:40.680Z,43.60
2018-11-07T09:51:11.163Z,43.70
2018-11-07T09:53:41.663Z,43.10
2018-11-07T09:56:12.081Z,41.80
2018-11-07T09:58:42.576Z,41.90
2018-11-07T10:01:13.068Z,41.90
2018-11-07T10:03:43.525Z,42.00
2018-11-07T10:06:13.970Z,42.90
2018-11-07T10:08:44.418Z,42.30
2018-11-07T10:11:14.889Z,42.10
2018-11-07T10:13:45.475Z,42.80
2018-11-07T10:16:15.942Z,42.40
2018-11-07T10:18:46.494Z,43.80
2018-11-07T10:21:16.841Z,43.80
2018-11-07T10:23:47.388Z,45.60
2018-11-07T10:26:17.764Z,45.10
2018-11-07T10:28:48.454Z,45.70
2018-11-07T10:31:18.661Z,48.80
2018-11-07T10:33:49.158Z,50.30
2018-11-07T10:36:19.691Z,50.00
2018-11-07T10:38:50.211Z,50.10
2018-11-07T10:41:20.642Z,49.60
2018-11-07T10:43:51.573Z,49.80
2018-11-07T10:46:22.853Z,49.90
2018-11-07T10:48:53.310Z,50.10
2018-11-07T10:51:25.733Z,48.50
2018-11-07T10:53:56.215Z,48.20
2018-11-07T10:56:26.685Z,48.40
2018-11-07T10:58:57.138Z,49.00
2018-11-07T11:01:45.113Z,49.50
2018-11-07T11:04:15.594Z,49.30
2018-11-07T11:06:46.211Z,50.40
2018-11-07T11:09:16.660Z,50.00
2018-11-07T11:11:47.083Z,50.40
2018-11-07T11:14:17.528Z,50.30
2018-11-07T11:16:48.013Z,49.30
2018-11-07T11:19:18.421Z,49.60
2018-11-07T11:21:48.969Z,50.00
2018-11-07T11:24:19.278Z,50.80
2018-11-07T11:26:49.697Z,51.70
2018-11-07T11:29:20.223Z,52.10
2018-11-07T11:31:53.593Z,52.70
2018-11-07T11:34:24.261Z,51.40
2018-11-07T11:36:54.569Z,51.10
2018-11-07T11:39:25.023Z,51.90
2018-11-07T11:41:55.532Z,51.90
2018-11-07T11:44:25.998Z,51.80
2018-11-07T11:46:56.478Z,51.70
2018-11-07T11:49:26.944Z,52.00
2018-11-07T11:51:57.426Z,52.60
2018-11-07T11:54:27.943Z,52.80
2018-11-07T11:56:58.383Z,52.00
2018-11-07T11:59:29.018Z,51.60
2018-11-07T12:01:59.267Z,51.90
2018-11-07T12:04:29.754Z,53.10
2018-11-07T12:07:00.212Z,53.20
2018-11-07T12:09:30.651Z,53.30
2018-11-07T12:12:01.138Z,53.40
2018-11-07T12:14:31.596Z,54.20
2018-11-07T12:17:02.032Z,54.00
2018-11-07T12:19:32.547Z,54.50
2018-11-07T12:22:02.989Z,54.70
2018-11-07T12:24:33.471Z,54.50
2018-11-07T12:27:03.928Z,54.60
2018-11-07T12:29:34.417Z,55.00
2018-11-07T12:32:04.889Z,55.00
2018-11-07T12:34:35.380Z,54.90
2018-11-07T12:37:05.972Z,55.20
2018-11-07T12:39:36.446Z,55.20
2018-11-07T12:42:07.144Z,55.50
2018-11-07T12:44:37.596Z,55.40
2018-11-07T12:47:08.116Z,55.90
2018-11-07T12:49:38.565Z,55.80
2018-11-07T12:52:08.931Z,56.10
2018-11-07T12:54:39.478Z,56.10
2018-11-07T12:57:09.898Z,56.50
2018-11-07T12:59:40.381Z,56.30
2018-11-07T13:02:10.837Z,56.90
2018-11-07T13:04:41.379Z,57.40
2018-11-07T13:07:11.757Z,57.70
2018-11-07T13:09:42.238Z,57.40
2018-11-07T13:12:12.731Z,56.90
2018-11-07T13:14:43.176Z,57.60
2018-11-07T13:17:13.643Z,58.10
2018-11-07T13:19:44.243Z,58.70
2018-11-07T13:22:14.915Z,58.60
2018-11-07T13:24:45.396Z,58.80
2018-11-07T13:27:15.917Z,59.40
2018-11-07T13:29:46.402Z,60.10
2018-11-07T13:32:16.867Z,60.20
2018-11-07T13:34:47.392Z,60.30
2018-11-07T13:37:18.194Z,60.90
2018-11-07T13:39:48.838Z,61.00
2018-11-07T13:42:19.369Z,61.60
2018-11-07T13:44:50.680Z,62.30
2018-11-07T13:47:21.570Z,62.60
2018-11-07T13:49:52.103Z,63.30
2018-11-07T13:52:22.781Z,64.30
2018-11-07T13:54:53.280Z,64.60
2018-11-07T13:57:23.857Z,64.90
2018-11-07T13:59:54.416Z,65.30
2018-11-07T14:02:25.119Z,65.70
2018-11-07T14:04:55.752Z,65.90
2018-11-07T14:07:26.347Z,66.30
2018-11-07T14:09:59.539Z,66.50
2018-11-07T14:12:30.129Z,66.90
2018-11-07T14:15:01.481Z,68.40
2018-11-07T14:17:32.420Z,68.20
2018-11-07T14:20:03.252Z,68.60
2018-11-07T14:22:33.788Z,69.10
2018-11-07T14:25:04.551Z,69.70
2018-11-07T14:27:35.145Z,70.50
2018-11-07T14:30:07.324Z,71.40
2018-11-07T14:32:38.031Z,72.30
2018-11-07T14:35:08.644Z,73.50
2018-11-07T14:37:39.112Z,73.90
2018-11-07T14:40:09.678Z,74.50
2018-11-07T14:42:40.253Z,75.10
2018-11-07T14:45:11.932Z,76.10
2018-11-07T14:47:43.142Z,76.80
2018-11-07T14:50:13.813Z,77.40
2018-11-07T14:52:44.345Z,78.30
2018-11-07T14:55:14.896Z,79.00
2018-11-07T14:57:45.440Z,79.30
2018-11-07T15:00:16.944Z,79.70
2018-11-07T15:02:47.732Z,80.10
2018-11-07T15:05:18.802Z,80.60
2018-11-07T15:07:49.285Z,81.10
2018-11-07T15:10:19.742Z,81.70
2018-11-07T15:12:50.304Z,82.10
2018-11-07T15:15:20.780Z,82.20
2018-11-07T15:17:51.460Z,82.20
2018-11-07T15:20:21.991Z,82.70
2018-11-07T15:22:52.967Z,83.50
2018-11-07T15:25:23.746Z,84.30
2018-11-07T15:27:54.416Z,84.80
2018-11-07T15:30:25.166Z,85.40
2018-11-07T15:32:55.791Z,85.60
2018-11-07T15:35:27.369Z,86.40
2018-11-07T15:37:57.988Z,86.90
2018-11-07T15:40:29.326Z,87.10
2018-11-07T15:43:01.111Z,87.70
2018-11-07T15:45:32.307Z,87.70
2018-11-07T15:48:03.583Z,88.10
2018-11-07T15:50:53.280Z,88.50
2018-11-07T15:53:23.832Z,88.70
2018-11-07T15:55:54.412Z,88.90
2018-11-07T15:58:25.090Z,89.10
2018-11-07T16:00:55.569Z,89.50
2018-11-07T16:03:51.356Z,89.80
2018-11-07T16:06:21.952Z,90.50
2018-11-07T16:08:55.909Z,90.40
2018-11-07T16:11:27.341Z,90.40
2018-11-07T16:13:57.919Z,90.50
2018-11-07T16:16:28.799Z,90.80
2018-11-07T16:18:59.262Z,90.80
2018-11-07T16:21:29.769Z,90.90
2018-11-07T16:24:00.556Z,90.80
2018-11-07T16:26:31.058Z,91.10
2018-11-07T16:29:01.582Z,91.30
2018-11-07T16:31:32.090Z,91.20
2018-11-07T16:34:02.674Z,91.30
2018-11-07T16:36:33.072Z,91.50
2018-11-07T16:39:03.718Z,91.60
2018-11-07T16:41:34.338Z,91.70
2018-11-07T16:44:04.659Z,91.70
2018-11-07T16:46:35.242Z,91.80
2018-11-07T16:49:08.110Z,92.00
2018-11-07T16:51:39.256Z,91.90
2018-11-07T16:54:11.894Z,92.20
2018-11-07T16:56:42.714Z,92.50
2018-11-07T16:59:15.217Z,92.40
2018-11-07T17:01:48.356Z,92.30
2018-11-07T17:04:20.891Z,92.60
2018-11-07T17:06:53.595Z,92.60
2018-11-07T17:09:29.783Z,92.70
2018-11-07T17:12:01.564Z,92.20
2018-11-07T17:14:34.686Z,92.10
2018-11-07T17:17:14.474Z,92.70
2018-11-07T17:19:46.468Z,93.00
2018-11-07T17:22:17.100Z,93.10
2018-11-07T17:24:48.144Z,92.80
2018-11-07T17:27:19.043Z,92.40
2018-11-07T17:29:49.471Z,91.90
2018-11-07T17:32:21.101Z,92.20
2018-11-07T17:34:51.699Z,92.20
2018-11-07T17:37:22.196Z,92.10
2018-11-07T17:39:52.720Z,92.20
2018-11-07T17:42:23.393Z,92.40
2018-11-07T17:44:53.929Z,92.20
2018-11-07T17:47:24.506Z,92.20
2018-11-07T17:49:55.081Z,92.40
2018-11-07T17:52:25.799Z,92.50
2018-11-07T17:54:56.359Z,92.60
2018-11-07T17:57:27.453Z,92.70
2018-11-07T17:59:58.055Z,92.80
2018-11-07T18:02:28.802Z,93.20
2018-11-07T18:04:59.379Z,93.50
2018-11-07T18:07:29.893Z,92.90
2018-11-07T18:10:00.463Z,92.80
2018-11-07T18:12:31.076Z,92.80
2018-11-07T18:15:01.635Z,92.70
2018-11-07T18:17:32.271Z,92.90
2018-11-07T18:20:03.685Z,92.90
2018-11-07T18:22:34.282Z,93.20
2018-11-07T18:25:04.961Z,93.30
2018-11-07T18:27:36.410Z,93.60
2018-11-07T18:30:08.414Z,93.10
2018-11-07T18:32:39.254Z,93.30
2018-11-07T18:35:11.471Z,93.30
2018-11-07T18:37:44.338Z,93.20
2018-11-07T18:40:16.336Z,93.40
2018-11-07T18:42:46.980Z,93.30
2018-11-07T18:45:18.088Z,93.20
2018-11-07T18:47:48.802Z,93.40
2018-11-07T18:50:20.589Z,93.70
2018-11-07T18:52:51.981Z,93.60
2018-11-07T18:55:28.780Z,93.20
2018-11-07T18:58:18.813Z,93.20
2018-11-07T19:01:40.673Z,93.20
2018-11-07T19:04:11.881Z,93.50
2018-11-07T19:06:43.214Z,93.20
2018-11-07T19:09:15.264Z,93.10
2018-11-07T19:11:47.073Z,93.40
2018-11-07T19:14:24.398Z,93.40
2018-11-07T19:16:55.551Z,93.70
2018-11-07T19:19:27.563Z,93.20
2018-11-07T19:21:59.531Z,93.70
2018-11-07T19:24:31.573Z,93.50
2018-11-07T19:27:04.020Z,93.40
2018-11-07T19:29:35.913Z,93.10
2018-11-07T19:32:06.390Z,92.80
2018-11-07T19:34:36.909Z,93.30
2018-11-07T19:37:07.712Z,93.50
2018-11-07T19:39:38.358Z,93.40
2018-11-07T19:42:08.760Z,93.40
2018-11-07T19:44:39.601Z,93.60
2018-11-07T19:47:09.999Z,93.60
2018-11-07T19:49:40.600Z,93.80
2018-11-07T19:52:11.103Z,93.60
2018-11-07T19:54:41.592Z,93.70
2018-11-07T19:57:12.098Z,93.70
2018-11-07T19:59:42.676Z,93.50
2018-11-07T20:02:13.214Z,93.70
2018-11-07T20:04:43.738Z,93.80
2018-11-07T20:07:15.401Z,93.90
2018-11-07T20:09:46.991Z,93.80
2018-11-07T20:12:19.088Z,93.90
2018-11-07T20:14:53.856Z,93.80
2018-11-07T20:17:25.013Z,94.00
2018-11-07T20:20:02.783Z,94.00
2018-11-07T20:22:35.732Z,93.80
2018-11-07T20:25:09.580Z,93.70
2018-11-07T20:27:43.203Z,93.70
2018-11-07T20:30:15.826Z,94.00
2018-11-07T20:32:47.287Z,94.80
2018-11-07T20:35:20.417Z,94.80
2018-11-07T20:37:55.889Z,94.70
2018-11-07T20:40:29.925Z,94.50
2018-11-07T20:43:00.799Z,94.50
2018-11-07T20:45:31.592Z,94.60
2018-11-07T20:48:02.336Z,94.30
2018-11-07T20:50:35.213Z,94.10
2018-11-07T20:53:06.579Z,94.10
2018-11-07T20:55:44.188Z,94.00
2018-11-07T20:58:15.512Z,94.00
2018-11-07T21:00:46.638Z,93.70
2018-11-07T21:03:18.955Z,93.30
2018-11-07T21:05:54.072Z,94.20
2018-11-07T21:08:26.132Z,93.60
2018-11-07T21:10:59.912Z,94.70
2018-11-07T21:13:31.962Z,94.00
2018-11-07T21:16:07.693Z,94.10
2018-11-07T21:18:44.931Z,94.00
2018-11-07T21:21:20.690Z,94.60
2018-11-07T21:24:05.695Z,94.70
2018-11-07T21:26:41.813Z,95.40
2018-11-07T21:29:18.896Z,95.60
2018-11-07T21:31:50.871Z,95.90
2018-11-07T21:34:30.457Z,95.80
2018-11-07T21:37:01.886Z,95.80
2018-11-07T21:40:19.189Z,95.30
2018-11-07T21:43:01.433Z,94.60
2018-11-07T21:49:33.671Z,95.50
2018-11-07T21:52:21.742Z,96.30
2018-11-07T21:55:04.927Z,95.50
2018-11-07T21:57:37.863Z,95.50
2018-11-07T22:00:53.604Z,95.10
2018-11-07T22:03:25.976Z,95.00
2018-11-07T22:05:58.038Z,95.20
2018-11-07T22:08:33.580Z,95.70
2018-11-07T22:11:04.084Z,96.00
2018-11-07T22:13:34.564Z,96.00
2018-11-07T22:16:05.045Z,95.90
2018-11-07T22:18:35.528Z,95.70
2018-11-07T22:21:06.166Z,95.80
2018-11-07T22:23:36.697Z,95.80
2018-11-07T22:26:07.521Z,95.70
2018-11-07T22:28:40.635Z,96.00
2018-11-07T22:31:12.731Z,96.40
2018-11-07T22:33:44.393Z,96.20
2018-11-07T22:36:16.363Z,96.00
2018-11-07T22:38:48.171Z,95.70
2018-11-07T22:41:19.936Z,95.70
2018-11-07T22:43:52.005Z,95.70
2018-11-07T22:46:23.902Z,95.90
2018-11-07T22:48:56.100Z,96.00
2018-11-07T22:51:28.324Z,95.50
2018-11-07T22:53:59.623Z,95.80
2018-11-07T22:56:31.383Z,96.00
2018-11-07T22:59:01.898Z,96.10
2018-11-07T23:01:42.336Z,95.90
2018-11-07T23:04:12.822Z,95.80
2018-11-07T23:06:43.326Z,95.80
2018-11-07T23:09:14.992Z,95.80
2018-11-07T23:11:45.750Z,96.00
2018-11-07T23:14:16.509Z,96.20
2018-11-07T23:16:46.983Z,96.60
2018-11-07T23:19:17.449Z,96.40
2018-11-07T23:21:47.902Z,96.00
2018-11-07T23:24:18.335Z,95.70
2018-11-07T23:26:48.768Z,95.60
2018-11-07T23:29:19.184Z,95.60
2018-11-07T23:31:49.684Z,95.60
2018-11-07T23:34:20.186Z,95.50
2018-11-07T23:39:21.115Z,95.90
2018-11-07T23:41:51.582Z,96.00
2018-11-07T23:44:22.053Z,95.70
2018-11-07T23:46:52.526Z,95.70
2018-11-07T23:49:23.017Z,95.70
2018-11-07T23:51:53.487Z,95.50
2018-11-07T23:54:23.955Z,96.00
2018-11-07T23:56:54.427Z,96.10
2018-11-07T23:59:24.865Z,96.20
